Time;durP1;ratioP1;P1;durP2;ratioP2;P2;SDS_P1;SDS_P2;PMS_P1;PMS_P2;Temp;Humidity;BMP_temperature;BMP_pressure;BME280_temperature;BME280_humidity;BME280_pressure;Samples;Min_cycle;Max_cycle;Signal;HPM_P1;HPM_P2
2021/11/01 00:00:20;;;;;;;2.95;0.60;;;10.70;92.40;;;;;;6314507;22;20017;-81
2021/11/01 00:02:47;;;;;;;1.20;0.60;;;10.70;92.50;;;;;;6343003;22;20014;-81
2021/11/01 00:05:13;;;;;;;1.23;0.60;;;10.80;92.50;;;;;;6370186;22;20046;-81
2021/11/01 00:07:39;;;;;;;3.80;1.02;;;10.80;92.50;;;;;;6342688;22;20005;-80
2021/11/01 00:10:06;;;;;;;1.10;0.60;;;10.70;92.50;;;;;;6370006;22;20011;-81
2021/11/01 00:12:32;;;;;;;1.73;0.70;;;10.80;92.50;;;;;;6342435;22;20002;-81
2021/11/01 00:14:59;;;;;;;1.95;0.75;;;10.70;92.50;;;;;;6342594;22;20081;-81
2021/11/01 00:17:26;;;;;;;3.67;1.05;;;10.70;92.50;;;;;;6369700;22;20012;-82
2021/11/01 00:19:52;;;;;;;2.90;0.90;;;10.60;92.50;;;;;;6370415;22;20006;-80
2021/11/01 00:22:20;;;;;;;3.17;0.70;;;10.70;92.50;;;;;;6314415;22;20398;-81
2021/11/01 00:24:46;;;;;;;4.18;0.88;;;10.60;92.40;;;;;;6315363;22;20009;-81
2021/11/01 00:27:12;;;;;;;2.08;0.70;;;10.60;92.40;;;;;;6341743;22;20134;-80
2021/11/01 00:29:38;;;;;;;2.83;0.80;;;10.60;92.40;;;;;;6316030;22;20010;-81
2021/11/01 00:32:04;;;;;;;3.67;1.05;;;10.50;92.40;;;;;;6347652;22;20518;-80
2021/11/01 00:34:30;;;;;;;1.15;0.73;;;10.60;92.50;;;;;;6369896;22;20430;-81
2021/11/01 00:36:56;;;;;;;2.42;0.75;;;10.50;92.50;;;;;;6369609;22;20017;-80
2021/11/01 00:39:22;;;;;;;1.52;0.90;;;10.50;92.50;;;;;;6339327;22;20429;-82
2021/11/01 00:41:48;;;;;;;2.38;0.98;;;10.50;92.40;;;;;;6290192;22;20013;-82
2021/11/01 00:44:13;;;;;;;3.53;1.10;;;10.60;92.50;;;;;;6315398;22;20425;-82
2021/11/01 00:46:39;;;;;;;3.30;0.63;;;10.40;92.40;;;;;;6371080;22;20010;-82
2021/11/01 00:49:06;;;;;;;1.30;0.70;;;10.40;92.40;;;;;;6370062;22;20452;-82
2021/11/01 00:51:37;;;;;;;1.58;0.77;;;10.50;92.40;;;;;;6315963;22;20435;-82
2021/11/01 00:54:03;;;;;;;1.40;0.52;;;10.40;92.40;;;;;;6370927;22;20059;-82
2021/11/01 00:56:29;;;;;;;2.08;0.60;;;10.40;92.40;;;;;;6314614;22;20007;-82
2021/11/01 00:58:54;;;;;;;3.72;1.23;;;10.50;92.40;;;;;;6370724;22;20006;-82
2021/11/01 01:01:20;;;;;;;2.47;1.00;;;10.40;92.40;;;;;;6369393;22;20002;-82
2021/11/01 01:03:46;;;;;;;1.77;0.80;;;10.40;92.40;;;;;;6341329;22;20007;-82
2021/11/01 01:06:12;;;;;;;4.20;1.10;;;10.30;92.40;;;;;;6371769;22;20006;-82
2021/11/01 01:08:38;;;;;;;3.17;0.88;;;10.30;92.30;;;;;;6342098;22;20010;-82
2021/11/01 01:11:04;;;;;;;2.33;0.70;;;10.40;92.40;;;;;;6371190;22;20085;-82
2021/11/01 01:13:36;;;;;;;1.73;0.60;;;10.40;92.40;;;;;;6370928;22;20034;-82
2021/11/01 01:18:47;;;;;;;2.70;0.60;;;10.20;92.30;;;;;;6369297;22;20001;-82
2021/11/01 01:23:56;;;;;;;0.98;0.70;;;10.20;92.30;;;;;;6372153;22;20038;-82
2021/11/01 01:26:22;;;;;;;1.75;0.60;;;10.20;92.30;;;;;;6370931;22;20010;-82
2021/11/01 01:28:48;;;;;;;2.67;0.75;;;10.20;92.30;;;;;;6369474;22;20002;-82
2021/11/01 01:31:15;;;;;;;1.85;0.70;;;10.20;92.30;;;;;;6317877;22;20029;-82
2021/11/01 01:33:42;;;;;;;1.80;0.65;;;10.30;92.30;;;;;;6370517;22;20345;-82
2021/11/01 01:36:08;;;;;;;3.40;0.95;;;10.20;92.20;;;;;;6317060;22;20017;-82
2021/11/01 01:38:35;;;;;;;1.13;0.50;;;10.30;92.20;;;;;;6342192;22;20010;-82
2021/11/01 01:41:12;;;;;;;2.60;0.75;;;10.20;92.20;;;;;;6343409;22;20333;-82
2021/11/01 01:43:38;;;;;;;1.77;0.70;;;10.20;92.30;;;;;;6380142;22;20026;-82
2021/11/01 01:46:04;;;;;;;1.25;0.63;;;10.20;92.20;;;;;;6292300;22;20003;-82
2021/11/01 01:48:29;;;;;;;2.22;0.77;;;10.20;92.20;;;;;;6344128;22;20006;-82
2021/11/01 01:50:55;;;;;;;2.00;0.50;;;10.10;92.20;;;;;;6370960;22;20355;-82
2021/11/01 01:53:23;;;;;;;1.33;0.55;;;10.10;92.20;;;;;;6346719;22;20010;-82
2021/11/01 01:55:50;;;;;;;1.67;0.50;;;10.10;92.20;;;;;;6344958;22;20007;-82
2021/11/01 01:58:16;;;;;;;1.20;0.50;;;10.10;92.20;;;;;;6316512;22;20010;-82
2021/11/01 02:03:28;;;;;;;2.38;0.68;;;10.10;92.20;;;;;;6346726;22;20017;-82
2021/11/01 02:06:12;;;;;;;1.58;0.63;;;10.10;92.20;;;;;;6318258;22;20030;-82
2021/11/01 02:08:51;;;;;;;0.88;0.65;;;10.00;92.10;;;;;;6342682;22;20014;-82
2021/11/01 02:11:24;;;;;;;0.93;0.40;;;10.10;92.10;;;;;;6370872;22;20009;-82
2021/11/01 02:13:52;;;;;;;3.35;0.47;;;10.10;92.10;;;;;;6345911;22;20038;-82
2021/11/01 02:16:19;;;;;;;1.80;0.50;;;10.00;92.10;;;;;;6340360;22;20010;-82
2021/11/01 02:18:51;;;;;;;1.48;0.50;;;10.10;92.10;;;;;;6343638;22;20013;-82
2021/11/01 02:21:25;;;;;;;2.40;1.02;;;9.90;92.00;;;;;;6314455;22;20006;-82
2021/11/01 02:24:10;;;;;;;1.23;0.52;;;10.00;92.10;;;;;;6370455;22;20441;-82
2021/11/01 02:26:38;;;;;;;1.77;0.43;;;10.00;92.10;;;;;;6342028;22;20014;-83
2021/11/01 02:29:05;;;;;;;1.77;0.63;;;10.00;92.10;;;;;;6339897;22;20011;-82
2021/11/01 02:31:32;;;;;;;2.40;0.70;;;10.00;92.00;;;;;;6316174;22;20307;-83
2021/11/01 02:33:59;;;;;;;3.70;1.02;;;10.00;92.30;;;;;;6342565;22;20009;-83
2021/11/01 02:36:26;;;;;;;2.90;0.85;;;9.90;92.00;;;;;;6369970;22;20047;-82
2021/11/01 02:38:54;;;;;;;2.95;0.77;;;10.10;92.00;;;;;;6369938;22;20006;-82
2021/11/01 02:41:23;;;;;;;2.22;0.73;;;10.10;91.90;;;;;;6369741;22;20041;-82
2021/11/01 02:43:53;;;;;;;2.70;0.70;;;10.10;91.90;;;;;;6342698;22;20002;-82
2021/11/01 02:46:19;;;;;;;4.43;0.93;;;10.10;91.90;;;;;;6341822;22;20064;-82
2021/11/01 02:48:46;;;;;;;3.15;0.80;;;9.90;91.80;;;;;;6374257;22;20014;-83
2021/11/01 02:51:13;;;;;;;4.55;0.80;;;10.10;91.90;;;;;;6342309;22;20014;-82
2021/11/01 02:53:39;;;;;;;4.97;0.73;;;10.00;91.80;;;;;;6341853;22;20010;-82
2021/11/01 02:56:08;;;;;;;1.85;0.60;;;10.00;91.80;;;;;;6291393;22;20097;-82
2021/11/01 02:58:34;;;;;;;1.17;0.55;;;10.00;91.80;;;;;;6345205;22;20460;-82
2021/11/01 03:01:00;;;;;;;0.95;0.50;;;10.00;91.80;;;;;;6316113;22;20002;-82
2021/11/01 03:03:26;;;;;;;1.67;0.50;;;10.00;91.90;;;;;;6371374;22;20006;-82
2021/11/01 03:05:52;;;;;;;1.63;0.50;;;10.00;91.90;;;;;;6315902;22;20147;-82
2021/11/01 03:08:18;;;;;;;1.00;0.45;;;9.90;91.90;;;;;;6370796;22;20010;-82
2021/11/01 03:10:44;;;;;;;1.90;0.60;;;10.00;91.90;;;;;;6292068;22;20037;-82
2021/11/01 03:13:10;;;;;;;1.27;0.40;;;9.90;91.90;;;;;;6343155;22;20307;-82
2021/11/01 03:15:36;;;;;;;3.28;0.70;;;9.90;91.90;;;;;;6341900;22;20338;-82
2021/11/01 03:18:06;;;;;;;0.70;0.40;;;9.90;91.90;;;;;;6316457;22;20006;-83
2021/11/01 03:20:38;;;;;;;2.05;0.65;;;10.00;91.90;;;;;;6342760;22;19998;-82
2021/11/01 03:23:08;;;;;;;1.48;0.70;;;9.90;91.90;;;;;;6315376;22;20048;-82
2021/11/01 03:25:50;;;;;;;0.70;0.45;;;9.90;91.90;;;;;;6316669;22;20017;-83
2021/11/01 03:28:18;;;;;;;1.17;0.70;;;9.90;91.90;;;;;;6288837;22;20025;-82
2021/11/01 03:30:46;;;;;;;1.63;0.55;;;9.90;91.90;;;;;;6342124;22;20017;-82
2021/11/01 03:33:13;;;;;;;0.90;0.40;;;9.90;91.90;;;;;;6342843;22;20038;-82
2021/11/01 03:35:40;;;;;;;0.80;0.50;;;9.90;91.90;;;;;;6315752;22;20007;-82
2021/11/01 03:38:07;;;;;;;1.13;0.50;;;9.90;91.90;;;;;;6341003;22;20325;-83
2021/11/01 03:40:35;;;;;;;1.80;0.63;;;9.90;91.90;;;;;;6341770;22;20398;-83
2021/11/01 03:43:04;;;;;;;0.73;0.45;;;9.90;91.90;;;;;;6369397;22;20434;-83
2021/11/01 03:45:30;;;;;;;1.08;0.50;;;9.90;91.90;;;;;;6340087;22;20014;-83
2021/11/01 03:48:03;;;;;;;3.03;1.05;;;9.80;91.90;;;;;;6369335;22;20502;-83
2021/11/01 03:50:36;;;;;;;2.35;0.60;;;9.80;91.90;;;;;;6341087;22;20013;-82
2021/11/01 03:53:03;;;;;;;1.05;0.50;;;9.80;91.90;;;;;;6340059;22;20010;-83
2021/11/01 03:55:29;;;;;;;3.28;0.70;;;9.80;91.90;;;;;;6316888;22;20021;-83
2021/11/01 03:57:57;;;;;;;2.45;0.60;;;9.90;91.90;;;;;;6314021;22;20438;-83
2021/11/01 04:00:26;;;;;;;0.98;0.50;;;9.80;91.90;;;;;;6368769;22;20010;-83
2021/11/01 04:02:53;;;;;;;2.13;1.08;;;9.80;91.80;;;;;;6290407;22;20006;-83
2021/11/01 04:05:19;;;;;;;2.10;0.57;;;9.80;91.80;;;;;;6340271;22;20003;-83
2021/11/01 04:07:45;;;;;;;0.43;0.35;;;9.80;91.80;;;;;;6342619;22;20024;-83
2021/11/01 04:10:12;;;;;;;1.52;0.60;;;9.70;91.80;;;;;;6369109;22;20007;-83
2021/11/01 04:12:41;;;;;;;2.22;0.50;;;9.80;91.90;;;;;;6340567;22;20018;-83
2021/11/01 04:15:11;;;;;;;2.78;0.70;;;9.90;91.90;;;;;;6340258;22;20334;-83
2021/11/01 04:17:47;;;;;;;2.80;0.50;;;9.90;91.90;;;;;;6317966;22;20087;-82
2021/11/01 04:23:04;;;;;;;3.10;0.82;;;9.70;91.90;;;;;;6323985;22;20013;-83
2021/11/01 04:25:31;;;;;;;1.70;0.55;;;9.80;91.90;;;;;;6287710;22;20127;-83
2021/11/01 04:27:59;;;;;;;2.58;0.68;;;9.70;91.90;;;;;;6317035;22;20437;-83
2021/11/01 04:30:25;;;;;;;1.23;0.60;;;9.80;91.90;;;;;;6315183;22;20509;-83
2021/11/01 04:32:56;;;;;;;2.40;0.80;;;9.80;91.80;;;;;;6315347;22;20007;-83
2021/11/01 04:35:25;;;;;;;2.15;0.63;;;9.70;91.80;;;;;;6339400;22;20014;-83
2021/11/01 04:37:59;;;;;;;1.15;0.60;;;9.80;91.80;;;;;;6315479;22;20059;-83
2021/11/01 04:40:33;;;;;;;1.77;0.60;;;9.80;91.90;;;;;;6370256;22;20491;-83
2021/11/01 04:43:24;;;;;;;1.42;0.60;;;9.90;91.90;;;;;;6318021;22;20002;-83
2021/11/01 04:53:46;;;;;;;2.17;0.55;;;9.80;91.80;;;;;;6345175;22;20057;-83
2021/11/01 04:56:13;;;;;;;1.42;0.73;;;9.80;91.80;;;;;;6315649;22;20067;-83
2021/11/01 04:58:43;;;;;;;2.22;0.50;;;9.80;91.80;;;;;;6370237;22;20006;-83
2021/11/01 05:01:10;;;;;;;1.45;0.63;;;9.80;91.80;;;;;;6370359;22;20002;-83
2021/11/01 05:03:38;;;;;;;2.78;0.90;;;9.80;91.80;;;;;;6340288;22;20014;-83
2021/11/01 05:06:04;;;;;;;1.95;0.60;;;9.70;91.80;;;;;;6372114;22;20438;-83
2021/11/01 05:08:39;;;;;;;2.97;0.90;;;9.90;91.80;;;;;;6319034;22;20499;-82
2021/11/01 05:11:13;;;;;;;3.85;1.05;;;9.70;91.80;;;;;;6342563;22;20021;-82
2021/11/01 05:13:39;;;;;;;2.38;0.80;;;9.80;91.80;;;;;;6345146;22;20037;-82
2021/11/01 05:18:58;;;;;;;1.00;0.60;;;9.70;91.70;;;;;;6323320;22;20446;-83
2021/11/01 05:21:34;;;;;;;1.90;0.88;;;9.70;91.80;;;;;;6372541;22;20006;-83
2021/11/01 05:24:05;;;;;;;3.17;0.88;;;9.60;91.80;;;;;;6318522;22;20006;-83
2021/11/01 05:26:49;;;;;;;2.03;0.80;;;9.70;91.80;;;;;;6344113;22;20013;-83
2021/11/01 05:29:15;;;;;;;4.13;0.88;;;9.70;91.80;;;;;;6346105;22;20008;-83
2021/11/01 05:31:53;;;;;;;2.35;0.60;;;9.70;91.80;;;;;;6370486;22;20018;-82
2021/11/01 05:34:19;;;;;;;3.28;0.90;;;9.70;91.80;;;;;;6344938;22;20006;-83
2021/11/01 05:36:45;;;;;;;1.85;0.60;;;9.70;91.80;;;;;;6317111;22;20010;-82
2021/11/01 05:39:11;;;;;;;4.03;0.70;;;9.70;91.80;;;;;;6342562;22;20063;-82
2021/11/01 05:41:37;;;;;;;2.50;0.77;;;9.60;91.70;;;;;;6316771;22;20030;-82
2021/11/01 05:44:04;;;;;;;1.67;0.80;;;9.70;91.80;;;;;;6290524;22;20009;-82
2021/11/01 05:46:34;;;;;;;1.55;0.63;;;9.70;91.80;;;;;;6371237;22;20456;-82
2021/11/01 05:49:01;;;;;;;1.17;0.60;;;9.70;91.80;;;;;;6341678;22;20014;-84
2021/11/01 05:51:27;;;;;;;1.45;0.75;;;9.60;91.70;;;;;;6344341;22;20007;-83
2021/11/01 05:53:57;;;;;;;1.48;0.52;;;9.70;91.80;;;;;;6369825;22;20013;-82
2021/11/01 05:56:34;;;;;;;1.25;0.50;;;9.70;91.80;;;;;;6342706;22;20013;-82
2021/11/01 05:59:20;;;;;;;1.65;0.40;;;9.70;91.80;;;;;;6293708;22;20434;-82
2021/11/01 06:07:41;;;;;;;3.55;0.80;;;9.80;91.80;;;;;;6344108;22;20160;-83
2021/11/01 06:10:09;;;;;;;2.47;0.70;;;9.70;91.70;;;;;;6368670;22;20021;-83
2021/11/01 06:15:12;;;;;;;3.88;0.73;;;9.70;91.60;;;;;;6343037;22;20017;-83
2021/11/01 06:17:38;;;;;;;0.90;0.50;;;9.70;91.70;;;;;;6315749;22;20002;-82
2021/11/01 06:20:05;;;;;;;1.17;0.70;;;9.70;91.70;;;;;;6341569;22;20014;-82
2021/11/01 06:22:31;;;;;;;0.90;0.60;;;9.70;91.70;;;;;;6342011;22;20009;-82
2021/11/01 06:24:59;;;;;;;2.30;0.80;;;9.70;91.70;;;;;;6315449;22;20002;-83
2021/11/01 06:27:26;;;;;;;2.33;0.70;;;9.70;91.70;;;;;;6342693;22;20345;-84
2021/11/01 06:30:09;;;;;;;3.40;0.73;;;9.70;91.70;;;;;;6343950;22;20007;-82
2021/11/01 06:32:43;;;;;;;1.42;0.77;;;9.70;91.70;;;;;;6368590;22;20059;-82
2021/11/01 06:40:37;;;;;;;2.45;0.95;;;9.80;91.60;;;;;;6369296;22;20010;-83
2021/11/01 06:43:08;;;;;;;1.85;0.70;;;9.80;91.50;;;;;;6371542;22;20002;-83
2021/11/01 06:45:56;;;;;;;1.67;0.68;;;9.80;91.50;;;;;;6343637;22;20007;-83
2021/11/01 06:51:11;;;;;;;1.27;0.77;;;9.90;91.40;;;;;;6345258;22;20455;-84
2021/11/01 06:53:59;;;;;;;3.25;0.90;;;9.90;91.40;;;;;;6295388;22;20323;-84
2021/11/01 07:15:12;;;;;;;1.95;0.63;;;10.10;91.30;;;;;;6322677;22;20038;-87
2021/11/01 07:17:43;;;;;;;1.73;0.75;;;10.10;91.20;;;;;;6294195;22;20034;-85
2021/11/01 07:25:54;;;;;;;1.45;0.70;;;10.10;91.20;;;;;;6344239;22;20095;-86
2021/11/01 08:21:28;;;;;;;2.97;1.00;;;10.40;90.70;;;;;;6180702;23;20024;-79
2021/11/01 08:29:42;;;;;;;3.25;1.10;;;10.50;91.00;;;;;;6184146;23;20023;-79
2021/11/01 08:35:20;;;;;;;3.05;0.98;;;10.50;90.70;;;;;;6233336;22;20461;-79
2021/11/01 08:38:01;;;;;;;1.70;0.52;;;10.50;90.60;;;;;;6265809;22;20455;-84
2021/11/01 08:40:41;;;;;;;1.58;0.60;;;10.60;90.70;;;;;;6338471;22;20414;-79
2021/11/01 08:43:38;;;;;;;4.63;1.00;;;10.60;90.60;;;;;;6338284;22;20038;-82
2021/11/01 08:48:39;;;;;;;2.67;1.10;;;10.70;90.60;;;;;;6317821;22;20124;-79
2021/11/01 08:51:30;;;;;;;1.67;0.73;;;10.70;90.60;;;;;;6314494;22;20030;-80
2021/11/01 09:02:16;;;;;;;3.53;0.80;;;10.90;90.50;;;;;;6342333;22;20014;-78
2021/11/01 09:07:56;;;;;;;2.88;0.90;;;11.00;90.40;;;;;;6251603;22;20058;-82
2021/11/01 09:13:32;;;;;;;2.90;1.20;;;10.90;90.30;;;;;;6146510;23;20025;-84
2021/11/01 09:18:48;;;;;;;3.92;1.30;;;11.10;90.30;;;;;;6131853;23;20018;-81
2021/11/01 09:21:31;;;;;;;3.63;1.38;;;11.00;90.10;;;;;;6142492;23;20018;-78
2021/11/01 09:24:28;;;;;;;2.38;1.17;;;11.00;90.10;;;;;;6163979;23;20044;-80
2021/11/01 09:26:45;;;;;;;3.45;1.13;;;11.10;90.00;;;;;;6159319;23;20015;-80
2021/11/01 09:37:54;;;;;;;7.65;1.40;;;11.20;89.60;;;;;;6149072;23;20023;-81
2021/11/01 09:42:53;;;;;;;2.55;1.17;;;11.10;89.30;;;;;;6283243;22;20019;-80
2021/11/01 09:45:21;;;;;;;;;;;11.10;89.30;;;;;;6345439;22;20075;-81
2021/11/01 09:47:47;;;;;;;3.08;1.00;;;11.30;89.30;;;;;;6369384;22;19906;-81
2021/11/01 09:50:16;;;;;;;4.47;1.15;;;11.30;89.10;;;;;;6376293;22;20052;-80
2021/11/01 09:53:19;;;;;;;3.22;1.00;;;11.40;89.00;;;;;;6317732;22;20010;-83
2021/11/01 10:01:22;;;;;;;2.20;1.15;;;11.30;88.90;;;;;;6344582;22;20445;-79
2021/11/01 10:03:50;;;;;;;3.60;1.05;;;11.40;89.00;;;;;;6296852;22;20006;-80
2021/11/01 10:06:22;;;;;;;1.58;0.90;;;11.40;89.00;;;;;;6299343;22;20010;-84
2021/11/01 10:09:12;;;;;;;2.13;0.70;;;11.50;88.90;;;;;;6347449;22;20006;-79
2021/11/01 10:11:49;;;;;;;4.15;1.10;;;11.50;88.80;;;;;;6373303;22;20091;-82
2021/11/01 10:14:15;;;;;;;1.08;0.70;;;11.40;88.60;;;;;;6293611;22;20106;-82
2021/11/01 10:19:36;;;;;;;3.78;1.05;;;11.50;88.60;;;;;;6252147;22;20020;-79
2021/11/01 10:22:06;;;;;;;1.75;0.85;;;11.50;88.50;;;;;;6248096;22;20008;-79
2021/11/01 10:24:42;;;;;;;2.37;0.93;;;11.40;88.40;;;;;;6248368;22;20435;-80
2021/11/01 10:27:16;;;;;;;3.25;1.15;;;11.50;88.40;;;;;;6200462;22;20015;-79
2021/11/01 10:29:57;;;;;;;2.50;0.75;;;11.50;88.30;;;;;;6247888;22;20016;-84
2021/11/01 10:32:27;;;;;;;;;;;11.50;88.20;;;;;;6278475;22;20016;-77
2021/11/01 10:35:08;;;;;;;1.40;0.88;;;11.60;88.10;;;;;;6280754;22;19907;-80
2021/11/01 10:37:36;;;;;;;3.63;0.90;;;11.60;88.10;;;;;;6225128;22;20015;-82
2021/11/01 10:40:06;;;;;;;3.40;0.85;;;11.70;87.90;;;;;;6223515;22;20093;-78
2021/11/01 10:42:42;;;;;;;2.92;0.90;;;11.70;87.60;;;;;;6248894;22;20022;-80
2021/11/01 10:45:39;;;;;;;2.40;0.80;;;11.80;87.30;;;;;;6222426;22;20016;-81
2021/11/01 11:12:13;;;;;;;2.00;0.82;;;11.90;86.40;;;;;;6222613;22;20043;-84
2021/11/01 11:14:43;;;;;;;3.58;0.80;;;11.90;86.30;;;;;;6201760;22;20422;-84
2021/11/01 11:23:11;;;;;;;1.10;0.80;;;12.10;85.70;;;;;;6273256;22;20070;-84
2021/11/01 11:26:27;;;;;;;2.75;0.80;;;12.10;85.40;;;;;;6181638;23;20423;-86
2021/11/01 11:31:33;;;;;;;;;;;12.10;85.50;;;;;;6220486;23;20020;-84
2021/11/01 11:37:23;;;;;;;3.13;0.85;;;12.10;85.60;;;;;;6220979;23;19931;-85
2021/11/01 11:39:33;;;;;;;1.15;0.50;;;12.30;85.40;;;;;;6228013;23;20367;-87
2021/11/01 11:42:24;;;;;;;2.60;0.93;;;12.40;85.40;;;;;;6151891;23;20022;-88
2021/11/01 11:48:37;;;;;;;2.33;0.70;;;12.50;85.10;;;;;;6040462;23;20123;-87
2021/11/01 11:51:09;;;;;;;2.38;0.95;;;12.50;84.90;;;;;;5975192;23;20486;-87
2021/11/01 11:53:55;;;;;;;2.50;0.80;;;12.70;84.40;;;;;;5937440;24;20017;-84
2021/11/01 11:56:39;;;;;;;1.90;0.80;;;12.70;84.30;;;;;;5988472;23;20023;-88
2021/11/01 11:59:10;;;;;;;0.98;0.45;;;12.80;84.00;;;;;;6017466;23;20022;-80
2021/11/01 12:01:40;;;;;;;2.00;0.70;;;12.90;84.00;;;;;;6014413;23;20026;-80
2021/11/01 12:08:17;;;;;;;1.88;0.70;;;13.00;83.50;;;;;;6019010;23;20020;-86
2021/11/01 12:11:14;;;;;;;2.15;0.63;;;13.10;83.40;;;;;;5950214;24;20013;-83
2021/11/01 12:14:16;;;;;;;0.52;0.45;;;13.20;83.00;;;;;;5924065;24;20026;-82
2021/11/01 12:19:29;;;;;;;0.95;0.50;;;13.40;83.10;;;;;;6028973;23;20019;-82
2021/11/01 12:22:40;;;;;;;0.90;0.40;;;13.40;82.90;;;;;;6040165;23;20027;-81
2021/11/01 12:25:08;;;;;;;2.45;0.60;;;13.50;82.80;;;;;;6032624;23;20022;-80
2021/11/01 12:27:37;;;;;;;2.33;0.50;;;13.50;82.30;;;;;;6069365;23;20126;-78
2021/11/01 12:30:11;;;;;;;2.42;0.75;;;13.60;82.50;;;;;;6045179;23;20038;-82
2021/11/01 12:32:39;;;;;;;1.05;0.43;;;13.40;82.50;;;;;;6082677;23;20018;-80
2021/11/01 12:35:17;;;;;;;4.07;0.88;;;13.50;82.50;;;;;;6131940;23;20029;-80
2021/11/01 12:37:58;;;;;;;3.17;0.88;;;13.50;82.20;;;;;;6124892;23;20038;-80
2021/11/01 12:57:08;;;;;;;1.77;0.50;;;13.10;83.20;;;;;;6344495;22;20018;-80
2021/11/01 12:59:45;;;;;;;1.92;0.60;;;13.30;83.10;;;;;;6339621;22;20011;-81
2021/11/01 13:02:35;;;;;;;1.90;0.70;;;13.40;82.40;;;;;;6369693;22;20345;-83
2021/11/01 13:05:07;;;;;;;2.13;0.75;;;13.40;81.90;;;;;;6319886;22;20841;-80
2021/11/01 13:07:50;;;;;;;2.70;0.88;;;13.50;81.80;;;;;;6371458;22;20013;-82
2021/11/01 13:10:25;;;;;;;1.77;0.70;;;13.60;81.20;;;;;;6339906;22;20034;-81
2021/11/01 13:13:39;;;;;;;2.03;0.50;;;13.60;81.00;;;;;;6253729;22;20166;-83
2021/11/01 13:18:36;;;;;;;1.13;0.60;;;13.50;80.90;;;;;;6279515;22;20046;-82
2021/11/01 13:21:14;;;;;;;1.67;0.73;;;13.50;80.90;;;;;;6252978;22;20019;-82
2021/11/01 13:23:54;;;;;;;1.10;0.57;;;13.50;80.90;;;;;;6278732;22;20012;-83
2021/11/01 13:26:36;;;;;;;1.50;0.65;;;13.50;81.10;;;;;;6282333;22;20027;-82
2021/11/01 13:37:21;;;;;;;0.60;0.30;;;13.40;81.20;;;;;;6221407;23;20016;-82
2021/11/01 13:40:00;;;;;;;2.13;0.60;;;13.40;81.40;;;;;;6218565;23;20052;-81
2021/11/01 13:42:28;;;;;;;0.85;0.50;;;13.40;81.50;;;;;;6193177;23;20020;-84
2021/11/01 13:45:09;;;;;;;1.15;0.52;;;13.40;81.30;;;;;;6250430;22;20007;-82
2021/11/01 13:47:45;;;;;;;2.33;0.80;;;13.40;81.20;;;;;;6274754;22;20570;-82
2021/11/01 13:50:11;;;;;;;1.88;0.70;;;13.40;81.30;;;;;;6248753;22;20050;-83
2021/11/01 13:52:40;;;;;;;1.60;0.52;;;13.40;81.30;;;;;;6247901;22;20011;-80
2021/11/01 13:58:01;;;;;;;0.82;0.38;;;13.50;81.20;;;;;;6249543;22;20015;-81
2021/11/01 14:00:36;;;;;;;2.72;0.70;;;13.50;80.90;;;;;;6233654;22;20016;-81
2021/11/01 14:03:11;;;;;;;2.15;0.80;;;13.50;80.70;;;;;;6221716;22;20333;-82
2021/11/01 14:11:29;;;;;;;0.95;0.40;;;13.50;80.80;;;;;;6250266;22;20016;-82
2021/11/01 14:16:49;;;;;;;1.95;0.70;;;13.30;81.00;;;;;;6253235;22;20019;-82
2021/11/01 15:09:01;;;;;;;0.45;0.32;;;12.80;81.50;;;;;;5959560;24;20409;-78
2021/11/01 15:14:18;;;;;;;0.60;0.28;;;12.70;81.80;;;;;;6122911;22;20438;-78
2021/11/01 15:19:44;;;;;;;0.47;0.40;;;12.60;82.00;;;;;;6314228;22;20132;-78
2021/11/01 15:22:33;;;;;;;0.27;0.27;;;12.60;82.10;;;;;;6313257;22;20010;-78
2021/11/01 15:28:02;;;;;;;0.85;0.30;;;12.50;82.10;;;;;;6271461;22;20435;-78
2021/11/01 15:36:22;;;;;;;0.43;0.20;;;12.30;82.50;;;;;;6336943;22;20054;-78
2021/11/01 15:39:02;;;;;;;0.82;0.30;;;12.20;82.60;;;;;;6313664;22;20011;-78
2021/11/01 15:41:56;;;;;;;0.70;0.28;;;12.20;82.80;;;;;;6336149;22;20079;-79
2021/11/01 16:19:08;;;;;;;0.57;0.30;;;11.90;83.20;;;;;;6313498;22;20010;-79
2021/11/01 16:21:34;;;;;;;0.90;0.30;;;11.80;83.30;;;;;;6309419;22;20006;-80
2021/11/01 16:24:00;;;;;;;1.05;0.40;;;11.80;83.30;;;;;;6341820;22;20005;-80
2021/11/01 16:26:27;;;;;;;0.45;0.30;;;11.80;83.40;;;;;;6344052;22;20006;-81
2021/11/01 16:28:59;;;;;;;0.63;0.30;;;11.80;83.50;;;;;;6342025;22;20038;-80
2021/11/01 16:31:33;;;;;;;0.20;0.20;;;11.70;83.50;;;;;;6290991;22;20014;-80
2021/11/01 16:34:13;;;;;;;0.80;0.30;;;11.70;83.50;;;;;;6315072;22;20033;-80
2021/11/01 16:39:21;;;;;;;1.25;0.20;;;11.70;83.60;;;;;;6348577;22;20067;-80
2021/11/01 16:41:48;;;;;;;0.10;0.10;;;11.70;83.70;;;;;;6343441;22;20006;-81
2021/11/01 16:44:27;;;;;;;0.30;0.20;;;11.60;83.80;;;;;;6346148;22;20006;-80
2021/11/01 16:46:54;;;;;;;1.13;0.20;;;11.60;84.10;;;;;;6350213;22;20079;-80
2021/11/01 16:49:21;;;;;;;0.65;0.30;;;11.50;84.30;;;;;;6345092;22;20519;-80
2021/11/01 16:51:49;;;;;;;0.60;0.30;;;11.40;84.40;;;;;;6374830;22;20011;-80
2021/11/01 16:54:19;;;;;;;0.40;0.20;;;11.40;84.60;;;;;;6317818;22;20017;-80
2021/11/01 16:57:12;;;;;;;0.10;0.10;;;11.40;84.70;;;;;;6373246;22;20010;-80
2021/11/01 16:59:46;;;;;;;0.75;0.20;;;11.40;84.70;;;;;;6347919;22;20018;-80
2021/11/01 17:05:18;;;;;;;0.30;0.30;;;11.40;84.70;;;;;;6346070;22;20366;-79
2021/11/01 17:08:00;;;;;;;0.30;0.30;;;11.20;84.50;;;;;;6322732;22;20008;-79
2021/11/01 17:10:53;;;;;;;0.30;0.30;;;11.10;85.00;;;;;;6341602;22;20003;-80
2021/11/01 17:38:01;;;;;;;0.10;0.10;;;10.20;87.50;;;;;;6369193;22;20014;-79
2021/11/01 18:39:48;;;;;;;0.20;0.20;;;10.00;87.80;;;;;;6321513;22;20391;-79
2021/11/01 18:42:30;;;;;;;0.30;0.30;;;10.00;87.90;;;;;;6369576;22;19998;-79
2021/11/01 18:45:05;;;;;;;0.57;0.20;;;10.00;87.90;;;;;;6366458;22;20006;-79
2021/11/01 18:53:05;;;;;;;0.20;0.20;;;9.90;88.00;;;;;;6342750;22;20014;-79
2021/11/01 18:55:32;;;;;;;0.20;0.20;;;9.90;88.10;;;;;;6368963;22;20014;-79
2021/11/01 18:57:59;;;;;;;0.30;0.30;;;9.90;88.20;;;;;;6368380;22;20009;-79
2021/11/01 19:00:27;;;;;;;0.30;0.30;;;9.90;88.20;;;;;;6369602;22;20026;-79
2021/11/01 19:02:54;;;;;;;0.43;0.43;;;9.80;88.30;;;;;;6314965;22;20034;-79
2021/11/01 19:05:45;;;;;;;0.57;0.40;;;9.80;88.50;;;;;;6341699;22;20461;-79
2021/11/01 19:08:23;;;;;;;0.95;0.30;;;9.70;88.50;;;;;;6368567;22;20520;-79
2021/11/01 20:08:07;;;;;;;0.30;0.30;;;9.20;89.90;;;;;;6368153;22;20062;-79
2021/11/01 20:10:28;;;;;;;0.35;0.22;;;9.20;89.80;;;;;;6369072;22;20097;-80
2021/11/01 20:13:01;;;;;;;0.30;0.30;;;9.20;89.80;;;;;;6341924;22;20010;-80
2021/11/01 21:25:26;;;;;;;0.85;0.20;;;8.80;90.20;;;;;;6346405;22;20017;-81
2021/11/01 21:27:52;;;;;;;0.30;0.30;;;8.80;90.20;;;;;;6341710;22;20002;-80
2021/11/01 21:30:19;;;;;;;0.47;0.47;;;8.80;90.10;;;;;;6340934;22;20006;-80
2021/11/01 21:32:45;;;;;;;0.88;0.50;;;8.80;90.40;;;;;;6341612;22;20131;-80
2021/11/01 21:35:18;;;;;;;0.30;0.30;;;8.80;90.10;;;;;;6341929;22;20006;-81
2021/11/01 21:37:45;;;;;;;0.45;0.30;;;9.00;90.10;;;;;;6369906;22;20442;-81
2021/11/01 21:40:12;;;;;;;0.45;0.40;;;8.80;90.00;;;;;;6369769;22;20002;-80
2021/11/01 21:42:39;;;;;;;0.95;0.50;;;8.90;90.00;;;;;;6291328;22;20006;-81
2021/11/01 21:45:07;;;;;;;0.75;0.30;;;8.90;90.00;;;;;;6314381;22;20112;-80
2021/11/01 21:47:35;;;;;;;0.70;0.40;;;8.90;90.00;;;;;;6342888;22;20010;-81
2021/11/01 21:50:01;;;;;;;0.60;0.38;;;9.00;90.00;;;;;;6313981;22;20007;-80
2021/11/01 21:52:27;;;;;;;0.47;0.47;;;9.00;90.00;;;;;;6339209;22;20022;-80
2021/11/01 21:54:56;;;;;;;0.57;0.30;;;9.00;90.00;;;;;;6369893;22;20010;-80
2021/11/01 21:57:30;;;;;;;0.52;0.47;;;9.00;90.00;;;;;;6315301;22;20011;-80
2021/11/01 22:00:23;;;;;;;0.60;0.40;;;8.90;90.00;;;;;;6369848;22;20013;-81
2021/11/01 22:19:02;;;;;;;0.95;0.40;;;8.90;90.10;;;;;;6368965;22;20345;-82
2021/11/01 22:21:44;;;;;;;0.45;0.30;;;9.00;90.10;;;;;;6345224;22;20006;-87
2021/11/01 22:24:18;;;;;;;0.10;0.10;;;9.00;90.10;;;;;;6223478;22;20015;-83
2021/11/01 22:33:07;;;;;;;0.65;0.30;;;8.90;90.20;;;;;;6249874;22;20023;-81
2021/11/01 22:38:27;;;;;;;1.05;0.55;;;8.80;90.60;;;;;;6225810;22;20022;-79
2021/11/01 22:41:13;;;;;;;0.55;0.40;;;8.80;90.30;;;;;;6251671;22;20022;-80
2021/11/01 22:44:07;;;;;;;0.40;0.40;;;8.70;90.30;;;;;;6245884;22;20391;-81
2021/11/01 22:57:11;;;;;;;1.30;0.30;;;8.60;90.50;;;;;;6343121;22;20019;-80
2021/11/01 22:59:37;;;;;;;0.90;0.55;;;8.60;90.60;;;;;;6313714;22;20031;-80
2021/11/01 23:02:05;;;;;;;0.65;0.40;;;8.50;90.60;;;;;;6369070;22;20056;-79
2021/11/01 23:31:32;;;;;;;0.28;0.25;;;8.40;90.60;;;;;;6364911;22;20017;-87
2021/11/01 23:34:03;;;;;;;1.20;0.43;;;8.30;90.60;;;;;;6279658;22;20025;-80
2021/11/01 23:36:29;;;;;;;0.77;0.40;;;8.30;90.60;;;;;;6303405;22;20516;-83
2021/11/01 23:38:54;;;;;;;0.52;0.40;;;8.20;90.60;;;;;;6251917;22;20015;-82
2021/11/01 23:41:20;;;;;;;0.30;0.30;;;8.40;90.70;;;;;;6303274;22;20443;-82
2021/11/01 23:43:47;;;;;;;0.73;0.30;;;8.20;90.70;;;;;;6303789;22;20015;-80
2021/11/01 23:46:14;;;;;;;0.65;0.30;;;8.20;90.70;;;;;;6228166;22;20050;-81